sensor_id;sensor_type;location;lat;lon;timestamp;temperature;humidity
1391;DHT22;690;51.454;7.194;2023-05-25T00:00:41;7.70;1.00
1391;DHT22;690;51.454;7.194;2023-05-25T00:03:08;7.70;1.00
1391;DHT22;690;51.454;7.194;2023-05-25T00:05:36;7.70;1.00
1391;DHT22;690;51.454;7.194;2023-05-25T00:08:02;7.60;1.00
1391;DHT22;690;51.454;7.194;2023-05-25T00:10:31;7.60;1.00
1391;DHT22;690;51.454;7.194;2023-05-25T00:12:57;7.60;1.00
1391;DHT22;690;51.454;7.194;2023-05-25T00:15:24;7.60;1.00
1391;DHT22;690;51.454;7.194;2023-05-25T00:17:51;7.50;11.30
1391;DHT22;690;51.454;7.194;2023-05-25T00:20:19;7.50;24.90
1391;DHT22;690;51.454;7.194;2023-05-25T00:22:46;7.50;38.10
1391;DHT22;690;51.454;7.194;2023-05-25T00:25:13;7.50;57.00
1391;DHT22;690;51.454;7.194;2023-05-25T00:27:41;7.40;67.60
1391;DHT22;690;51.454;7.194;2023-05-25T00:30:08;7.40;96.20
1391;DHT22;690;51.454;7.194;2023-05-25T00:32:35;7.40;99.90
1391;DHT22;690;51.454;7.194;2023-05-25T00:35:02;7.40;99.90
1391;DHT22;690;51.454;7.194;2023-05-25T00:37:29;7.50;99.90
1391;DHT22;690;51.454;7.194;2023-05-25T00:39:56;7.50;99.90
1391;DHT22;690;51.454;7.194;2023-05-25T00:42:26;7.40;99.90
1391;DHT22;690;51.454;7.194;2023-05-25T00:44:54;7.40;99.90
1391;DHT22;690;51.454;7.194;2023-05-25T00:47:22;7.40;99.90
1391;DHT22;690;51.454;7.194;2023-05-25T00:49:49;7.40;1.00
1391;DHT22;690;51.454;7.194;2023-05-25T00:52:17;7.30;1.00
1391;DHT22;690;51.454;7.194;2023-05-25T00:54:47;7.30;1.00
1391;DHT22;690;51.454;7.194;2023-05-25T00:57:17;7.30;1.00
1391;DHT22;690;51.454;7.194;2023-05-25T00:59:50;7.40;1.00
1391;DHT22;690;51.454;7.194;2023-05-25T01:02:19;7.30;1.00
1391;DHT22;690;51.454;7.194;2023-05-25T01:04:51;7.30;1.00
1391;DHT22;690;51.454;7.194;2023-05-25T01:07:21;7.30;1.00
1391;DHT22;690;51.454;7.194;2023-05-25T01:09:56;7.30;1.00
1391;DHT22;690;51.454;7.194;2023-05-25T01:12:25;7.20;1.00
1391;DHT22;690;51.454;7.194;2023-05-25T01:14:53;7.30;1.00
1391;DHT22;690;51.454;7.194;2023-05-25T01:17:23;7.30;1.00
1391;DHT22;690;51.454;7.194;2023-05-25T01:19:51;7.30;86.60
1391;DHT22;690;51.454;7.194;2023-05-25T01:22:27;7.20;99.90
1391;DHT22;690;51.454;7.194;2023-05-25T01:25:00;7.20;99.90
1391;DHT22;690;51.454;7.194;2023-05-25T01:27:32;7.20;99.90
1391;DHT22;690;51.454;7.194;2023-05-25T01:30:02;7.30;72.20
1391;DHT22;690;51.454;7.194;2023-05-25T01:32:30;7.20;99.90
1391;DHT22;690;51.454;7.194;2023-05-25T01:35:00;7.20;99.90
1391;DHT22;690;51.454;7.194;2023-05-25T01:37:28;7.20;99.90
1391;DHT22;690;51.454;7.194;2023-05-25T01:39:56;7.30;99.90
1391;DHT22;690;51.454;7.194;2023-05-25T01:42:23;7.20;99.90
1391;DHT22;690;51.454;7.194;2023-05-25T01:44:50;7.20;99.90
1391;DHT22;690;51.454;7.194;2023-05-25T01:47:22;7.20;99.90
1391;DHT22;690;51.454;7.194;2023-05-25T01:49:57;7.10;99.90
1391;DHT22;690;51.454;7.194;2023-05-25T01:52:29;7.10;99.90
1391;DHT22;690;51.454;7.194;2023-05-25T01:55:01;7.10;99.90
1391;DHT22;690;51.454;7.194;2023-05-25T01:57:29;7.10;99.90
1391;DHT22;690;51.454;7.194;2023-05-25T01:59:59;7.10;99.90
1391;DHT22;690;51.454;7.194;2023-05-25T02:02:28;7.00;1.00
1391;DHT22;690;51.454;7.194;2023-05-25T02:04:56;7.00;1.00
1391;DHT22;690;51.454;7.194;2023-05-25T02:07:23;7.00;1.00
1391;DHT22;690;51.454;7.194;2023-05-25T02:09:51;7.10;1.00
1391;DHT22;690;51.454;7.194;2023-05-25T02:12:18;7.00;1.00
1391;DHT22;690;51.454;7.194;2023-05-25T02:14:48;7.10;1.00
1391;DHT22;690;51.454;7.194;2023-05-25T02:17:25;7.10;1.00
1391;DHT22;690;51.454;7.194;2023-05-25T02:19:54;7.10;1.00
1391;DHT22;690;51.454;7.194;2023-05-25T02:22:21;7.10;1.00
1391;DHT22;690;51.454;7.194;2023-05-25T02:24:48;7.00;55.00
1391;DHT22;690;51.454;7.194;2023-05-25T02:27:16;7.00;99.90
1391;DHT22;690;51.454;7.194;2023-05-25T02:29:43;7.10;99.90
1391;DHT22;690;51.454;7.194;2023-05-25T02:32:10;7.10;99.90
1391;DHT22;690;51.454;7.194;2023-05-25T02:34:37;7.10;99.90
1391;DHT22;690;51.454;7.194;2023-05-25T02:37:04;7.10;85.70
1391;DHT22;690;51.454;7.194;2023-05-25T02:39:31;7.00;99.90
1391;DHT22;690;51.454;7.194;2023-05-25T02:41:58;7.00;99.90
1391;DHT22;690;51.454;7.194;2023-05-25T02:44:27;7.00;99.90
1391;DHT22;690;51.454;7.194;2023-05-25T02:46:54;6.90;99.90
1391;DHT22;690;51.454;7.194;2023-05-25T02:49:21;6.90;99.90
1391;DHT22;690;51.454;7.194;2023-05-25T02:51:47;6.80;99.90
1391;DHT22;690;51.454;7.194;2023-05-25T02:54:14;6.80;99.90
1391;DHT22;690;51.454;7.194;2023-05-25T02:56:41;6.80;99.90
1391;DHT22;690;51.454;7.194;2023-05-25T02:59:08;6.80;99.90
1391;DHT22;690;51.454;7.194;2023-05-25T03:01:36;6.80;99.90
1391;DHT22;690;51.454;7.194;2023-05-25T03:04:05;6.70;48.90
1391;DHT22;690;51.454;7.194;2023-05-25T03:06:32;6.70;99.90
1391;DHT22;690;51.454;7.194;2023-05-25T03:09:01;6.70;99.90
1391;DHT22;690;51.454;7.194;2023-05-25T03:11:29;6.60;99.90
1391;DHT22;690;51.454;7.194;2023-05-25T03:13:56;6.60;99.90
1391;DHT22;690;51.454;7.194;2023-05-25T03:16:23;6.50;99.90
1391;DHT22;690;51.454;7.194;2023-05-25T03:18:51;6.50;99.90
1391;DHT22;690;51.454;7.194;2023-05-25T03:21:19;6.50;99.90
1391;DHT22;690;51.454;7.194;2023-05-25T03:23:47;6.50;99.90
1391;DHT22;690;51.454;7.194;2023-05-25T03:26:14;6.40;1.00
1391;DHT22;690;51.454;7.194;2023-05-25T03:28:42;6.40;1.00
1391;DHT22;690;51.454;7.194;2023-05-25T03:31:08;6.40;1.00
1391;DHT22;690;51.454;7.194;2023-05-25T03:33:36;6.40;1.00
1391;DHT22;690;51.454;7.194;2023-05-25T03:36:07;6.40;1.00
1391;DHT22;690;51.454;7.194;2023-05-25T03:38:36;6.40;99.90
1391;DHT22;690;51.454;7.194;2023-05-25T03:41:02;6.40;99.90
1391;DHT22;690;51.454;7.194;2023-05-25T03:43:29;6.30;99.90
1391;DHT22;690;51.454;7.194;2023-05-25T03:45:56;6.40;1.00
1391;DHT22;690;51.454;7.194;2023-05-25T03:48:23;6.40;1.00
1391;DHT22;690;51.454;7.194;2023-05-25T03:50:50;6.40;1.00
1391;DHT22;690;51.454;7.194;2023-05-25T03:53:18;6.40;1.00
1391;DHT22;690;51.454;7.194;2023-05-25T03:55:45;6.40;1.00
1391;DHT22;690;51.454;7.194;2023-05-25T03:58:16;6.40;53.50
1391;DHT22;690;51.454;7.194;2023-05-25T04:00:43;6.40;99.90
1391;DHT22;690;51.454;7.194;2023-05-25T04:03:11;6.50;99.90
1391;DHT22;690;51.454;7.194;2023-05-25T04:05:38;6.50;99.90
1391;DHT22;690;51.454;7.194;2023-05-25T04:08:04;6.50;33.40
1391;DHT22;690;51.454;7.194;2023-05-25T04:10:34;6.60;1.00
1391;DHT22;690;51.454;7.194;2023-05-25T04:13:01;6.60;1.00
1391;DHT22;690;51.454;7.194;2023-05-25T04:15:28;6.60;1.00
1391;DHT22;690;51.454;7.194;2023-05-25T04:17:55;6.60;1.00
1391;DHT22;690;51.454;7.194;2023-05-25T04:20:23;6.60;1.00
1391;DHT22;690;51.454;7.194;2023-05-25T04:22:50;6.60;1.00
1391;DHT22;690;51.454;7.194;2023-05-25T04:25:17;6.60;99.90
1391;DHT22;690;51.454;7.194;2023-05-25T04:27:47;6.60;99.90
1391;DHT22;690;51.454;7.194;2023-05-25T04:30:14;6.70;99.90
1391;DHT22;690;51.454;7.194;2023-05-25T04:32:41;6.70;99.90
1391;DHT22;690;51.454;7.194;2023-05-25T04:35:10;6.80;99.90
1391;DHT22;690;51.454;7.194;2023-05-25T04:37:39;6.80;99.90
1391;DHT22;690;51.454;7.194;2023-05-25T04:40:07;6.80;99.90
1391;DHT22;690;51.454;7.194;2023-05-25T04:42:35;6.90;99.90
1391;DHT22;690;51.454;7.194;2023-05-25T04:45:05;6.90;99.90
1391;DHT22;690;51.454;7.194;2023-05-25T04:47:33;6.90;99.90
1391;DHT22;690;51.454;7.194;2023-05-25T04:50:02;7.00;1.00
1391;DHT22;690;51.454;7.194;2023-05-25T04:52:30;7.00;1.00
1391;DHT22;690;51.454;7.194;2023-05-25T04:54:57;7.10;1.00
1391;DHT22;690;51.454;7.194;2023-05-25T04:57:25;7.10;1.00
1391;DHT22;690;51.454;7.194;2023-05-25T04:59:53;7.20;1.00
1391;DHT22;690;51.454;7.194;2023-05-25T05:02:21;7.30;1.00
1391;DHT22;690;51.454;7.194;2023-05-25T05:04:49;7.30;99.90
1391;DHT22;690;51.454;7.194;2023-05-25T05:07:18;7.40;99.90
1391;DHT22;690;51.454;7.194;2023-05-25T05:09:45;7.40;99.90
1391;DHT22;690;51.454;7.194;2023-05-25T05:12:11;7.50;9.20
1391;DHT22;690;51.454;7.194;2023-05-25T05:14:38;7.60;1.00
1391;DHT22;690;51.454;7.194;2023-05-25T05:17:05;7.70;65.90
1391;DHT22;690;51.454;7.194;2023-05-25T05:19:34;7.70;1.00
1391;DHT22;690;51.454;7.194;2023-05-25T05:22:00;7.80;1.00
1391;DHT22;690;51.454;7.194;2023-05-25T05:24:27;7.80;1.00
1391;DHT22;690;51.454;7.194;2023-05-25T05:26:54;7.90;99.90
1391;DHT22;690;51.454;7.194;2023-05-25T05:29:21;8.00;99.90
1391;DHT22;690;51.454;7.194;2023-05-25T05:31:48;8.10;47.10
1391;DHT22;690;51.454;7.194;2023-05-25T05:34:15;8.20;99.90
1391;DHT22;690;51.454;7.194;2023-05-25T05:36:43;8.10;99.90
1391;DHT22;690;51.454;7.194;2023-05-25T05:39:13;8.10;99.90
1391;DHT22;690;51.454;7.194;2023-05-25T05:41:41;8.10;99.90
1391;DHT22;690;51.454;7.194;2023-05-25T05:44:10;8.10;99.90
1391;DHT22;690;51.454;7.194;2023-05-25T05:46:37;8.10;99.90
1391;DHT22;690;51.454;7.194;2023-05-25T05:49:04;8.10;99.90
1391;DHT22;690;51.454;7.194;2023-05-25T05:51:31;8.20;99.90
1391;DHT22;690;51.454;7.194;2023-05-25T05:54:00;8.20;99.90
1391;DHT22;690;51.454;7.194;2023-05-25T05:56:26;8.30;99.90
1391;DHT22;690;51.454;7.194;2023-05-25T05:58:53;8.40;84.00
1391;DHT22;690;51.454;7.194;2023-05-25T06:01:20;8.50;15.60
1391;DHT22;690;51.454;7.194;2023-05-25T06:03:48;8.50;1.00
1391;DHT22;690;51.454;7.194;2023-05-25T06:06:15;8.60;1.00
1391;DHT22;690;51.454;7.194;2023-05-25T06:08:42;8.70;1.00
1391;DHT22;690;51.454;7.194;2023-05-25T06:11:10;8.70;1.00
1391;DHT22;690;51.454;7.194;2023-05-25T06:13:37;8.80;99.90
1391;DHT22;690;51.454;7.194;2023-05-25T06:16:04;8.80;99.90
1391;DHT22;690;51.454;7.194;2023-05-25T06:18:31;8.90;99.90
1391;DHT22;690;51.454;7.194;2023-05-25T06:20:59;8.90;99.90
1391;DHT22;690;51.454;7.194;2023-05-25T06:23:26;9.00;44.00
1391;DHT22;690;51.454;7.194;2023-05-25T06:25:53;9.00;99.90
1391;DHT22;690;51.454;7.194;2023-05-25T06:28:21;9.20;10.10
1391;DHT22;690;51.454;7.194;2023-05-25T06:30:48;9.30;1.00
1391;DHT22;690;51.454;7.194;2023-05-25T06:33:15;9.40;1.00
1391;DHT22;690;51.454;7.194;2023-05-25T06:35:42;9.50;1.00
1391;DHT22;690;51.454;7.194;2023-05-25T06:38:09;9.70;99.90
1391;DHT22;690;51.454;7.194;2023-05-25T06:40:37;9.70;20.30
1391;DHT22;690;51.454;7.194;2023-05-25T06:43:03;9.70;99.90
1391;DHT22;690;51.454;7.194;2023-05-25T06:45:34;9.70;99.90
1391;DHT22;690;51.454;7.194;2023-05-25T06:48:00;9.80;99.90
1391;DHT22;690;51.454;7.194;2023-05-25T06:50:27;9.80;99.90
1391;DHT22;690;51.454;7.194;2023-05-25T06:52:54;10.00;99.90
1391;DHT22;690;51.454;7.194;2023-05-25T06:55:21;10.10;78.20
1391;DHT22;690;51.454;7.194;2023-05-25T06:57:49;10.20;1.00
1391;DHT22;690;51.454;7.194;2023-05-25T07:00:16;10.30;1.00
1391;DHT22;690;51.454;7.194;2023-05-25T07:02:45;10.30;1.00
1391;DHT22;690;51.454;7.194;2023-05-25T07:05:12;10.30;1.00
1391;DHT22;690;51.454;7.194;2023-05-25T07:07:39;10.30;1.00
1391;DHT22;690;51.454;7.194;2023-05-25T07:10:07;10.30;1.00
1391;DHT22;690;51.454;7.194;2023-05-25T07:12:34;10.30;1.00
1391;DHT22;690;51.454;7.194;2023-05-25T07:15:01;10.50;1.00
1391;DHT22;690;51.454;7.194;2023-05-25T07:17:29;10.70;1.00
1391;DHT22;690;51.454;7.194;2023-05-25T07:19:58;10.90;1.00
1391;DHT22;690;51.454;7.194;2023-05-25T07:22:25;11.20;1.00
1391;DHT22;690;51.454;7.194;2023-05-25T07:24:51;11.50;1.00
1391;DHT22;690;51.454;7.194;2023-05-25T07:27:18;11.80;1.00
1391;DHT22;690;51.454;7.194;2023-05-25T07:29:45;12.00;1.00
1391;DHT22;690;51.454;7.194;2023-05-25T07:32:12;12.20;1.00
1391;DHT22;690;51.454;7.194;2023-05-25T07:34:42;12.20;99.90
1391;DHT22;690;51.454;7.194;2023-05-25T07:37:12;12.20;99.90
1391;DHT22;690;51.454;7.194;2023-05-25T07:39:38;12.20;99.90
1391;DHT22;690;51.454;7.194;2023-05-25T07:42:06;12.30;99.90
1391;DHT22;690;51.454;7.194;2023-05-25T07:44:33;12.40;99.90
1391;DHT22;690;51.454;7.194;2023-05-25T07:46:59;12.60;99.90
1391;DHT22;690;51.454;7.194;2023-05-25T07:49:26;12.80;99.90
1391;DHT22;690;51.454;7.194;2023-05-25T07:51:53;12.90;99.90
1391;DHT22;690;51.454;7.194;2023-05-25T07:54:21;12.90;99.90
1391;DHT22;690;51.454;7.194;2023-05-25T07:56:52;12.80;99.90
1391;DHT22;690;51.454;7.194;2023-05-25T07:59:19;12.70;99.90
1391;DHT22;690;51.454;7.194;2023-05-25T08:01:46;12.70;99.90
1391;DHT22;690;51.454;7.194;2023-05-25T08:04:13;12.80;99.90
1391;DHT22;690;51.454;7.194;2023-05-25T08:06:40;12.80;99.90
1391;DHT22;690;51.454;7.194;2023-05-25T08:09:07;12.80;99.90
1391;DHT22;690;51.454;7.194;2023-05-25T08:11:35;12.80;99.90
1391;DHT22;690;51.454;7.194;2023-05-25T08:14:02;12.80;99.90
1391;DHT22;690;51.454;7.194;2023-05-25T08:16:29;12.90;99.90
1391;DHT22;690;51.454;7.194;2023-05-25T08:18:56;12.90;99.90
1391;DHT22;690;51.454;7.194;2023-05-25T08:21:25;12.90;99.90
1391;DHT22;690;51.454;7.194;2023-05-25T08:23:52;12.90;99.90
1391;DHT22;690;51.454;7.194;2023-05-25T08:26:19;12.90;99.90
1391;DHT22;690;51.454;7.194;2023-05-25T08:28:48;12.90;99.90
1391;DHT22;690;51.454;7.194;2023-05-25T08:31:15;13.10;99.90
1391;DHT22;690;51.454;7.194;2023-05-25T08:33:43;13.20;99.90
1391;DHT22;690;51.454;7.194;2023-05-25T08:36:10;13.20;99.90
1391;DHT22;690;51.454;7.194;2023-05-25T08:38:37;13.30;99.90
1391;DHT22;690;51.454;7.194;2023-05-25T08:41:04;13.30;99.90
1391;DHT22;690;51.454;7.194;2023-05-25T08:43:32;13.30;99.90
1391;DHT22;690;51.454;7.194;2023-05-25T08:46:03;13.30;99.90
1391;DHT22;690;51.454;7.194;2023-05-25T08:48:32;13.20;99.90
1391;DHT22;690;51.454;7.194;2023-05-25T08:51:01;13.20;99.90
1391;DHT22;690;51.454;7.194;2023-05-25T08:53:34;13.30;99.90
1391;DHT22;690;51.454;7.194;2023-05-25T08:56:08;13.40;99.90
1391;DHT22;690;51.454;7.194;2023-05-25T08:58:38;13.40;99.90
1391;DHT22;690;51.454;7.194;2023-05-25T09:01:12;13.40;99.90
1391;DHT22;690;51.454;7.194;2023-05-25T09:03:41;13.40;99.90
1391;DHT22;690;51.454;7.194;2023-05-25T09:06:09;13.40;99.90
1391;DHT22;690;51.454;7.194;2023-05-25T09:08:37;13.40;99.90
1391;DHT22;690;51.454;7.194;2023-05-25T09:11:05;13.30;99.90
1391;DHT22;690;51.454;7.194;2023-05-25T09:13:32;13.40;99.90
1391;DHT22;690;51.454;7.194;2023-05-25T09:16:00;13.50;99.90
1391;DHT22;690;51.454;7.194;2023-05-25T09:18:29;13.50;99.90
1391;DHT22;690;51.454;7.194;2023-05-25T09:20:56;13.60;99.90
1391;DHT22;690;51.454;7.194;2023-05-25T09:23:22;13.70;99.90
1391;DHT22;690;51.454;7.194;2023-05-25T09:25:50;13.70;99.90
1391;DHT22;690;51.454;7.194;2023-05-25T09:28:18;13.70;99.90
1391;DHT22;690;51.454;7.194;2023-05-25T09:30:45;13.80;99.90
1391;DHT22;690;51.454;7.194;2023-05-25T09:33:12;13.90;99.90
1391;DHT22;690;51.454;7.194;2023-05-25T09:35:40;13.90;99.90
1391;DHT22;690;51.454;7.194;2023-05-25T09:38:07;13.90;99.90
1391;DHT22;690;51.454;7.194;2023-05-25T09:40:35;13.80;99.90
1391;DHT22;690;51.454;7.194;2023-05-25T09:43:03;13.80;99.90
1391;DHT22;690;51.454;7.194;2023-05-25T09:45:33;13.80;99.90
1391;DHT22;690;51.454;7.194;2023-05-25T09:48:01;13.70;99.90
1391;DHT22;690;51.454;7.194;2023-05-25T09:50:28;13.70;99.90
1391;DHT22;690;51.454;7.194;2023-05-25T09:52:59;13.70;99.90
1391;DHT22;690;51.454;7.194;2023-05-25T09:55:27;13.80;99.90
1391;DHT22;690;51.454;7.194;2023-05-25T09:57:54;14.00;99.90
1391;DHT22;690;51.454;7.194;2023-05-25T10:00:23;14.30;99.90
1391;DHT22;690;51.454;7.194;2023-05-25T10:02:50;14.50;99.90
1391;DHT22;690;51.454;7.194;2023-05-25T10:05:19;14.70;99.90
1391;DHT22;690;51.454;7.194;2023-05-25T10:07:46;14.70;99.90
1391;DHT22;690;51.454;7.194;2023-05-25T10:10:15;14.60;99.90
1391;DHT22;690;51.454;7.194;2023-05-25T10:12:43;14.50;99.90
1391;DHT22;690;51.454;7.194;2023-05-25T10:15:12;14.60;99.90
1391;DHT22;690;51.454;7.194;2023-05-25T10:17:44;14.60;99.90
1391;DHT22;690;51.454;7.194;2023-05-25T10:20:14;14.70;99.90
1391;DHT22;690;51.454;7.194;2023-05-25T10:22:43;14.90;99.90
1391;DHT22;690;51.454;7.194;2023-05-25T10:25:19;15.00;99.90
1391;DHT22;690;51.454;7.194;2023-05-25T10:27:55;15.10;99.90
1391;DHT22;690;51.454;7.194;2023-05-25T10:30:24;15.10;99.90
1391;DHT22;690;51.454;7.194;2023-05-25T10:32:52;15.10;99.90
1391;DHT22;690;51.454;7.194;2023-05-25T10:35:20;15.00;99.90
1391;DHT22;690;51.454;7.194;2023-05-25T10:37:50;14.90;99.90
1391;DHT22;690;51.454;7.194;2023-05-25T10:40:20;15.10;99.90
1391;DHT22;690;51.454;7.194;2023-05-25T10:42:48;15.40;99.90
1391;DHT22;690;51.454;7.194;2023-05-25T10:45:15;15.50;99.90
1391;DHT22;690;51.454;7.194;2023-05-25T10:47:43;15.50;99.90
1391;DHT22;690;51.454;7.194;2023-05-25T10:50:22;15.50;99.90
1391;DHT22;690;51.454;7.194;2023-05-25T10:52:58;15.60;99.90
1391;DHT22;690;51.454;7.194;2023-05-25T10:55:27;15.60;99.90
1391;DHT22;690;51.454;7.194;2023-05-25T10:58:12;15.80;99.90
1391;DHT22;690;51.454;7.194;2023-05-25T11:00:42;15.80;99.90
1391;DHT22;690;51.454;7.194;2023-05-25T11:03:09;15.90;99.90
1391;DHT22;690;51.454;7.194;2023-05-25T11:05:37;16.00;99.90
1391;DHT22;690;51.454;7.194;2023-05-25T11:08:06;16.00;99.90
1391;DHT22;690;51.454;7.194;2023-05-25T11:10:59;16.10;99.90
1391;DHT22;690;51.454;7.194;2023-05-25T11:13:34;16.20;99.90
1391;DHT22;690;51.454;7.194;2023-05-25T11:16:18;16.20;99.90
1391;DHT22;690;51.454;7.194;2023-05-25T11:18:50;15.90;99.90
1391;DHT22;690;51.454;7.194;2023-05-25T11:24:11;15.40;99.90
1391;DHT22;690;51.454;7.194;2023-05-25T11:26:52;15.10;99.90
1391;DHT22;690;51.454;7.194;2023-05-25T11:29:20;14.90;99.90
1391;DHT22;690;51.454;7.194;2023-05-25T11:31:52;14.80;99.90
1391;DHT22;690;51.454;7.194;2023-05-25T11:34:20;14.90;99.90
1391;DHT22;690;51.454;7.194;2023-05-25T11:36:53;15.10;99.90
1391;DHT22;690;51.454;7.194;2023-05-25T11:39:21;15.30;99.90
1391;DHT22;690;51.454;7.194;2023-05-25T11:41:51;15.50;99.90
1391;DHT22;690;51.454;7.194;2023-05-25T11:44:25;15.60;99.90
1391;DHT22;690;51.454;7.194;2023-05-25T11:46:53;15.90;99.90
1391;DHT22;690;51.454;7.194;2023-05-25T11:49:22;16.10;99.90
1391;DHT22;690;51.454;7.194;2023-05-25T11:51:49;16.10;99.90
1391;DHT22;690;51.454;7.194;2023-05-25T11:54:23;16.00;99.90
1391;DHT22;690;51.454;7.194;2023-05-25T11:56:52;16.00;99.90
1391;DHT22;690;51.454;7.194;2023-05-25T11:59:22;16.10;99.90
1391;DHT22;690;51.454;7.194;2023-05-25T12:01:56;16.20;99.90
1391;DHT22;690;51.454;7.194;2023-05-25T12:04:24;16.30;99.90
1391;DHT22;690;51.454;7.194;2023-05-25T12:06:51;16.40;99.90
1391;DHT22;690;51.454;7.194;2023-05-25T12:09:22;16.50;99.90
1391;DHT22;690;51.454;7.194;2023-05-25T12:11:49;16.40;99.90
1391;DHT22;690;51.454;7.194;2023-05-25T12:14:17;16.40;99.90
1391;DHT22;690;51.454;7.194;2023-05-25T12:16:50;16.30;99.90
1391;DHT22;690;51.454;7.194;2023-05-25T12:19:18;16.20;99.90
1391;DHT22;690;51.454;7.194;2023-05-25T12:21:46;16.30;99.90
1391;DHT22;690;51.454;7.194;2023-05-25T12:24:16;16.40;99.90
1391;DHT22;690;51.454;7.194;2023-05-25T12:26:48;16.60;99.90
1391;DHT22;690;51.454;7.194;2023-05-25T12:29:17;16.70;99.90
1391;DHT22;690;51.454;7.194;2023-05-25T12:31:44;16.80;99.90
1391;DHT22;690;51.454;7.194;2023-05-25T12:34:14;16.90;99.90
1391;DHT22;690;51.454;7.194;2023-05-25T12:36:44;17.00;99.90
1391;DHT22;690;51.454;7.194;2023-05-25T12:39:13;17.00;99.90
1391;DHT22;690;51.454;7.194;2023-05-25T12:41:45;16.90;99.90
1391;DHT22;690;51.454;7.194;2023-05-25T12:44:20;16.80;99.90
1391;DHT22;690;51.454;7.194;2023-05-25T12:46:54;16.50;99.90
1391;DHT22;690;51.454;7.194;2023-05-25T12:49:26;16.20;99.90
1391;DHT22;690;51.454;7.194;2023-05-25T12:51:54;15.90;99.90
1391;DHT22;690;51.454;7.194;2023-05-25T12:54:35;15.80;99.90
1391;DHT22;690;51.454;7.194;2023-05-25T12:57:03;15.80;99.90
1391;DHT22;690;51.454;7.194;2023-05-25T12:59:33;15.80;99.90
1391;DHT22;690;51.454;7.194;2023-05-25T13:02:10;16.00;99.90
1391;DHT22;690;51.454;7.194;2023-05-25T13:04:39;16.10;99.90
1391;DHT22;690;51.454;7.194;2023-05-25T13:07:08;16.20;99.90
1391;DHT22;690;51.454;7.194;2023-05-25T13:09:35;16.20;99.90
1391;DHT22;690;51.454;7.194;2023-05-25T13:12:03;16.30;99.90
1391;DHT22;690;51.454;7.194;2023-05-25T13:14:34;16.30;99.90
1391;DHT22;690;51.454;7.194;2023-05-25T13:17:04;16.40;99.90
1391;DHT22;690;51.454;7.194;2023-05-25T13:19:31;16.60;99.90
1391;DHT22;690;51.454;7.194;2023-05-25T13:22:08;16.90;99.90
1391;DHT22;690;51.454;7.194;2023-05-25T13:24:36;17.30;99.90
1391;DHT22;690;51.454;7.194;2023-05-25T13:27:04;17.50;99.90
1391;DHT22;690;51.454;7.194;2023-05-25T13:29:43;17.50;99.90
1391;DHT22;690;51.454;7.194;2023-05-25T13:32:11;17.60;99.90
1391;DHT22;690;51.454;7.194;2023-05-25T13:34:42;17.60;99.90
1391;DHT22;690;51.454;7.194;2023-05-25T13:37:18;17.60;99.90
1391;DHT22;690;51.454;7.194;2023-05-25T13:39:45;17.60;99.90
1391;DHT22;690;51.454;7.194;2023-05-25T13:42:12;17.40;99.90
1391;DHT22;690;51.454;7.194;2023-05-25T13:44:39;17.30;99.90
1391;DHT22;690;51.454;7.194;2023-05-25T13:47:07;17.30;99.90
1391;DHT22;690;51.454;7.194;2023-05-25T13:49:38;17.30;99.90
1391;DHT22;690;51.454;7.194;2023-05-25T13:52:05;17.40;99.90
1391;DHT22;690;51.454;7.194;2023-05-25T13:54:32;17.60;99.90
1391;DHT22;690;51.454;7.194;2023-05-25T13:56:59;17.80;99.90
1391;DHT22;690;51.454;7.194;2023-05-25T13:59:26;18.00;99.90
1391;DHT22;690;51.454;7.194;2023-05-25T14:01:52;18.20;99.90
1391;DHT22;690;51.454;7.194;2023-05-25T14:04:21;18.20;99.90
1391;DHT22;690;51.454;7.194;2023-05-25T14:06:48;18.10;99.90
1391;DHT22;690;51.454;7.194;2023-05-25T14:09:15;18.00;99.90
1391;DHT22;690;51.454;7.194;2023-05-25T14:11:42;17.80;99.90
1391;DHT22;690;51.454;7.194;2023-05-25T14:14:10;17.80;99.90
1391;DHT22;690;51.454;7.194;2023-05-25T14:16:37;17.90;99.90
1391;DHT22;690;51.454;7.194;2023-05-25T14:19:04;18.20;99.90
1391;DHT22;690;51.454;7.194;2023-05-25T14:21:32;18.50;99.90
1391;DHT22;690;51.454;7.194;2023-05-25T14:23:59;18.70;99.90
1391;DHT22;690;51.454;7.194;2023-05-25T14:26:26;18.70;99.90
1391;DHT22;690;51.454;7.194;2023-05-25T14:28:53;18.60;99.90
1391;DHT22;690;51.454;7.194;2023-05-25T14:31:20;18.50;99.90
1391;DHT22;690;51.454;7.194;2023-05-25T14:33:47;18.40;99.90
1391;DHT22;690;51.454;7.194;2023-05-25T14:36:14;18.40;99.90
1391;DHT22;690;51.454;7.194;2023-05-25T14:38:42;18.20;99.90
1391;DHT22;690;51.454;7.194;2023-05-25T14:41:09;18.20;99.90
1391;DHT22;690;51.454;7.194;2023-05-25T14:43:36;18.30;99.90
1391;DHT22;690;51.454;7.194;2023-05-25T14:46:04;18.40;99.90
1391;DHT22;690;51.454;7.194;2023-05-25T14:48:30;18.70;99.90
1391;DHT22;690;51.454;7.194;2023-05-25T14:50:57;19.20;99.90
1391;DHT22;690;51.454;7.194;2023-05-25T14:53:25;19.40;99.90
1391;DHT22;690;51.454;7.194;2023-05-25T14:55:53;19.50;99.90
1391;DHT22;690;51.454;7.194;2023-05-25T14:58:20;19.20;99.90
1391;DHT22;690;51.454;7.194;2023-05-25T15:00:47;19.10;99.90
1391;DHT22;690;51.454;7.194;2023-05-25T15:03:14;19.00;99.90
1391;DHT22;690;51.454;7.194;2023-05-25T15:05:40;18.80;99.90
1391;DHT22;690;51.454;7.194;2023-05-25T15:08:07;18.90;99.90
1391;DHT22;690;51.454;7.194;2023-05-25T15:10:34;19.00;99.90
1391;DHT22;690;51.454;7.194;2023-05-25T15:13:03;19.20;99.90
1391;DHT22;690;51.454;7.194;2023-05-25T15:15:30;19.50;99.90
1391;DHT22;690;51.454;7.194;2023-05-25T15:17:57;20.00;99.90
1391;DHT22;690;51.454;7.194;2023-05-25T15:20:23;20.30;99.90
1391;DHT22;690;51.454;7.194;2023-05-25T15:22:50;20.50;99.90
1391;DHT22;690;51.454;7.194;2023-05-25T15:25:18;20.80;99.90
1391;DHT22;690;51.454;7.194;2023-05-25T15:27:45;20.90;99.90
1391;DHT22;690;51.454;7.194;2023-05-25T15:30:14;20.80;99.90
1391;DHT22;690;51.454;7.194;2023-05-25T15:32:41;20.50;99.90
1391;DHT22;690;51.454;7.194;2023-05-25T15:35:08;20.20;99.90
1391;DHT22;690;51.454;7.194;2023-05-25T15:37:35;21.10;99.90
1391;DHT22;690;51.454;7.194;2023-05-25T15:40:02;23.20;99.90
1391;DHT22;690;51.454;7.194;2023-05-25T15:42:29;25.30;99.90
1391;DHT22;690;51.454;7.194;2023-05-25T15:44:56;26.70;99.90
1391;DHT22;690;51.454;7.194;2023-05-25T15:47:24;27.30;99.90
1391;DHT22;690;51.454;7.194;2023-05-25T15:49:51;26.30;99.90
1391;DHT22;690;51.454;7.194;2023-05-25T15:52:18;25.00;99.90
1391;DHT22;690;51.454;7.194;2023-05-25T15:54:45;23.80;99.90
1391;DHT22;690;51.454;7.194;2023-05-25T15:57:12;23.10;99.90
1391;DHT22;690;51.454;7.194;2023-05-25T15:59:39;24.20;99.90
1391;DHT22;690;51.454;7.194;2023-05-25T16:02:06;26.00;99.90
1391;DHT22;690;51.454;7.194;2023-05-25T16:04:34;27.50;99.90
1391;DHT22;690;51.454;7.194;2023-05-25T16:07:01;29.00;99.90
1391;DHT22;690;51.454;7.194;2023-05-25T16:09:28;29.60;99.90
1391;DHT22;690;51.454;7.194;2023-05-25T16:11:56;29.90;99.90
1391;DHT22;690;51.454;7.194;2023-05-25T16:14:23;30.00;99.90
1391;DHT22;690;51.454;7.194;2023-05-25T16:16:53;30.00;99.90
1391;DHT22;690;51.454;7.194;2023-05-25T16:19:20;30.30;99.90
1391;DHT22;690;51.454;7.194;2023-05-25T16:21:48;30.70;99.90
1391;DHT22;690;51.454;7.194;2023-05-25T16:24:15;31.00;99.90
1391;DHT22;690;51.454;7.194;2023-05-25T16:26:42;31.70;99.90
1391;DHT22;690;51.454;7.194;2023-05-25T16:29:09;32.50;99.90
1391;DHT22;690;51.454;7.194;2023-05-25T16:31:37;32.70;99.90
1391;DHT22;690;51.454;7.194;2023-05-25T16:34:03;33.10;99.90
1391;DHT22;690;51.454;7.194;2023-05-25T16:36:30;33.20;99.90